sensor_id;sensor_type;location;lat;lon;timestamp;P1;durP1;ratioP1;P2;durP2;ratioP2
46116;SDS011;32591;48.102;11.772;2024-03-08T00:00:14;15.10;;;7.45;;
46116;SDS011;32591;48.102;11.772;2024-03-08T00:02:46;17.25;;;8.60;;
46116;SDS011;32591;48.102;11.772;2024-03-08T00:05:17;18.33;;;8.80;;
46116;SDS011;32591;48.102;11.772;2024-03-08T00:07:46;16.63;;;7.95;;
46116;SDS011;32591;48.102;11.772;2024-03-08T00:10:14;17.02;;;8.68;;
46116;SDS011;32591;48.102;11.772;2024-03-08T00:12:45;17.42;;;9.35;;
46116;SDS011;32591;48.102;11.772;2024-03-08T00:15:14;15.38;;;8.23;;
46116;SDS011;32591;48.102;11.772;2024-03-08T00:17:45;17.27;;;7.88;;
46116;SDS011;32591;48.102;11.772;2024-03-08T00:20:15;16.20;;;9.00;;
46116;SDS011;32591;48.102;11.772;2024-03-08T00:22:44;19.35;;;8.60;;
46116;SDS011;32591;48.102;11.772;2024-03-08T00:25:12;15.52;;;7.82;;
46116;SDS011;32591;48.102;11.772;2024-03-08T00:27:41;19.38;;;8.63;;
46116;SDS011;32591;48.102;11.772;2024-03-08T00:30:11;16.38;;;7.72;;
46116;SDS011;32591;48.102;11.772;2024-03-08T00:32:40;15.25;;;8.55;;
46116;SDS011;32591;48.102;11.772;2024-03-08T00:35:09;13.98;;;8.00;;
46116;SDS011;32591;48.102;11.772;2024-03-08T00:37:39;17.52;;;8.98;;
46116;SDS011;32591;48.102;11.772;2024-03-08T00:40:08;15.93;;;8.07;;
46116;SDS011;32591;48.102;11.772;2024-03-08T00:42:37;16.98;;;8.75;;
46116;SDS011;32591;48.102;11.772;2024-03-08T00:45:06;18.77;;;9.15;;
46116;SDS011;32591;48.102;11.772;2024-03-08T00:47:38;19.08;;;9.15;;
46116;SDS011;32591;48.102;11.772;2024-03-08T00:50:06;18.90;;;8.90;;
46116;SDS011;32591;48.102;11.772;2024-03-08T00:52:35;17.80;;;8.65;;
46116;SDS011;32591;48.102;11.772;2024-03-08T00:55:04;17.45;;;9.32;;
46116;SDS011;32591;48.102;11.772;2024-03-08T00:57:34;19.38;;;9.73;;
46116;SDS011;32591;48.102;11.772;2024-03-08T01:00:02;17.30;;;9.10;;
46116;SDS011;32591;48.102;11.772;2024-03-08T01:02:37;17.45;;;8.68;;
46116;SDS011;32591;48.102;11.772;2024-03-08T01:05:05;19.02;;;8.20;;
46116;SDS011;32591;48.102;11.772;2024-03-08T01:07:34;18.90;;;8.20;;
46116;SDS011;32591;48.102;11.772;2024-03-08T01:10:03;19.30;;;8.88;;
46116;SDS011;32591;48.102;11.772;2024-03-08T01:12:35;17.73;;;8.90;;
46116;SDS011;32591;48.102;11.772;2024-03-08T01:15:04;18.73;;;9.25;;
46116;SDS011;32591;48.102;11.772;2024-03-08T01:17:33;16.60;;;8.60;;
46116;SDS011;32591;48.102;11.772;2024-03-08T01:20:04;19.80;;;9.52;;
46116;SDS011;32591;48.102;11.772;2024-03-08T01:22:34;20.95;;;10.10;;
46116;SDS011;32591;48.102;11.772;2024-03-08T01:25:02;20.40;;;8.95;;
46116;SDS011;32591;48.102;11.772;2024-03-08T01:27:31;22.77;;;10.50;;
46116;SDS011;32591;48.102;11.772;2024-03-08T01:30:01;15.82;;;8.43;;
46116;SDS011;32591;48.102;11.772;2024-03-08T01:32:30;16.45;;;8.07;;
46116;SDS011;32591;48.102;11.772;2024-03-08T01:34:58;18.77;;;8.32;;
46116;SDS011;32591;48.102;11.772;2024-03-08T01:37:28;17.58;;;9.55;;
46116;SDS011;32591;48.102;11.772;2024-03-08T01:39:56;15.63;;;8.98;;
46116;SDS011;32591;48.102;11.772;2024-03-08T01:42:25;22.17;;;9.55;;
46116;SDS011;32591;48.102;11.772;2024-03-08T01:44:53;21.00;;;8.50;;
46116;SDS011;32591;48.102;11.772;2024-03-08T01:47:21;19.23;;;8.95;;
46116;SDS011;32591;48.102;11.772;2024-03-08T01:49:50;18.27;;;8.32;;
46116;SDS011;32591;48.102;11.772;2024-03-08T01:52:18;15.48;;;9.02;;
46116;SDS011;32591;48.102;11.772;2024-03-08T01:54:50;18.15;;;9.40;;
46116;SDS011;32591;48.102;11.772;2024-03-08T01:57:18;19.70;;;9.90;;
46116;SDS011;32591;48.102;11.772;2024-03-08T01:59:47;19.20;;;9.27;;
46116;SDS011;32591;48.102;11.772;2024-03-08T02:02:22;21.30;;;9.23;;
46116;SDS011;32591;48.102;11.772;2024-03-08T02:04:50;20.67;;;9.60;;
46116;SDS011;32591;48.102;11.772;2024-03-08T02:07:19;24.30;;;9.50;;
46116;SDS011;32591;48.102;11.772;2024-03-08T02:09:48;17.90;;;8.52;;
46116;SDS011;32591;48.102;11.772;2024-03-08T02:12:18;16.52;;;8.32;;
46116;SDS011;32591;48.102;11.772;2024-03-08T02:14:48;21.95;;;10.95;;
46116;SDS011;32591;48.102;11.772;2024-03-08T02:17:16;25.13;;;9.48;;
46116;SDS011;32591;48.102;11.772;2024-03-08T02:19:44;18.83;;;8.55;;
46116;SDS011;32591;48.102;11.772;2024-03-08T02:22:14;19.70;;;9.80;;
46116;SDS011;32591;48.102;11.772;2024-03-08T02:24:42;16.33;;;8.80;;
46116;SDS011;32591;48.102;11.772;2024-03-08T02:27:11;23.27;;;9.52;;
46116;SDS011;32591;48.102;11.772;2024-03-08T02:29:40;20.30;;;9.93;;
46116;SDS011;32591;48.102;11.772;2024-03-08T02:32:11;17.90;;;9.95;;
46116;SDS011;32591;48.102;11.772;2024-03-08T02:34:39;20.58;;;9.32;;
46116;SDS011;32591;48.102;11.772;2024-03-08T02:37:07;19.58;;;9.63;;
46116;SDS011;32591;48.102;11.772;2024-03-08T02:39:37;18.42;;;9.05;;
46116;SDS011;32591;48.102;11.772;2024-03-08T02:42:05;16.10;;;8.90;;
46116;SDS011;32591;48.102;11.772;2024-03-08T02:44:34;20.83;;;10.55;;
46116;SDS011;32591;48.102;11.772;2024-03-08T02:47:02;18.33;;;9.18;;
46116;SDS011;32591;48.102;11.772;2024-03-08T02:49:32;19.30;;;9.38;;
46116;SDS011;32591;48.102;11.772;2024-03-08T02:52:00;17.58;;;10.10;;
46116;SDS011;32591;48.102;11.772;2024-03-08T02:54:28;19.88;;;9.38;;
46116;SDS011;32591;48.102;11.772;2024-03-08T02:56:57;18.23;;;8.32;;
46116;SDS011;32591;48.102;11.772;2024-03-08T02:59:25;20.35;;;9.80;;
46116;SDS011;32591;48.102;11.772;2024-03-08T03:01:55;18.88;;;9.13;;
46116;SDS011;32591;48.102;11.772;2024-03-08T03:04:23;18.58;;;9.15;;
46116;SDS011;32591;48.102;11.772;2024-03-08T03:06:51;19.75;;;9.82;;
46116;SDS011;32591;48.102;11.772;2024-03-08T03:09:20;19.55;;;10.23;;
46116;SDS011;32591;48.102;11.772;2024-03-08T03:11:54;22.10;;;9.40;;
46116;SDS011;32591;48.102;11.772;2024-03-08T03:14:23;23.67;;;11.43;;
46116;SDS011;32591;48.102;11.772;2024-03-08T03:16:53;22.02;;;10.18;;
46116;SDS011;32591;48.102;11.772;2024-03-08T03:19:21;19.70;;;9.68;;
46116;SDS011;32591;48.102;11.772;2024-03-08T03:21:50;20.77;;;9.60;;
46116;SDS011;32591;48.102;11.772;2024-03-08T03:24:19;22.90;;;10.10;;
46116;SDS011;32591;48.102;11.772;2024-03-08T03:26:47;19.02;;;9.40;;
46116;SDS011;32591;48.102;11.772;2024-03-08T03:29:16;19.67;;;9.75;;
46116;SDS011;32591;48.102;11.772;2024-03-08T03:31:45;17.23;;;9.18;;
46116;SDS011;32591;48.102;11.772;2024-03-08T03:34:13;20.80;;;9.15;;
46116;SDS011;32591;48.102;11.772;2024-03-08T03:36:41;18.63;;;8.70;;
46116;SDS011;32591;48.102;11.772;2024-03-08T03:39:11;18.35;;;8.95;;
46116;SDS011;32591;48.102;11.772;2024-03-08T03:41:42;22.10;;;10.25;;
46116;SDS011;32591;48.102;11.772;2024-03-08T03:44:12;19.42;;;9.30;;
46116;SDS011;32591;48.102;11.772;2024-03-08T03:46:41;21.85;;;10.88;;
46116;SDS011;32591;48.102;11.772;2024-03-08T03:49:12;20.55;;;10.80;;
46116;SDS011;32591;48.102;11.772;2024-03-08T03:51:40;21.73;;;11.27;;
46116;SDS011;32591;48.102;11.772;2024-03-08T03:54:08;20.52;;;10.23;;
46116;SDS011;32591;48.102;11.772;2024-03-08T03:56:37;22.23;;;10.55;;
46116;SDS011;32591;48.102;11.772;2024-03-08T03:59:06;24.98;;;10.30;;
46116;SDS011;32591;48.102;11.772;2024-03-08T04:01:34;21.00;;;10.85;;
46116;SDS011;32591;48.102;11.772;2024-03-08T04:04:05;23.95;;;10.30;;
46116;SDS011;32591;48.102;11.772;2024-03-08T04:06:34;20.73;;;10.40;;
46116;SDS011;32591;48.102;11.772;2024-03-08T04:09:02;23.08;;;10.40;;
46116;SDS011;32591;48.102;11.772;2024-03-08T04:11:31;21.80;;;11.13;;
46116;SDS011;32591;48.102;11.772;2024-03-08T04:14:04;21.58;;;10.68;;
46116;SDS011;32591;48.102;11.772;2024-03-08T04:16:32;23.55;;;12.10;;
46116;SDS011;32591;48.102;11.772;2024-03-08T04:19:00;22.23;;;11.73;;
46116;SDS011;32591;48.102;11.772;2024-03-08T04:21:30;24.80;;;11.63;;
46116;SDS011;32591;48.102;11.772;2024-03-08T04:24:00;22.98;;;12.57;;
46116;SDS011;32591;48.102;11.772;2024-03-08T04:26:28;25.88;;;11.70;;
46116;SDS011;32591;48.102;11.772;2024-03-08T04:28:56;23.95;;;11.45;;
46116;SDS011;32591;48.102;11.772;2024-03-08T04:31:24;24.85;;;12.40;;
46116;SDS011;32591;48.102;11.772;2024-03-08T04:33:52;28.27;;;12.48;;
46116;SDS011;32591;48.102;11.772;2024-03-08T04:36:21;22.52;;;12.25;;
46116;SDS011;32591;48.102;11.772;2024-03-08T04:38:49;29.02;;;12.60;;
46116;SDS011;32591;48.102;11.772;2024-03-08T04:41:19;23.30;;;11.60;;
46116;SDS011;32591;48.102;11.772;2024-03-08T04:43:48;26.30;;;12.85;;
46116;SDS011;32591;48.102;11.772;2024-03-08T04:46:17;21.17;;;11.57;;
46116;SDS011;32591;48.102;11.772;2024-03-08T04:48:45;21.23;;;10.90;;
46116;SDS011;32591;48.102;11.772;2024-03-08T04:51:13;23.27;;;11.95;;
46116;SDS011;32591;48.102;11.772;2024-03-08T04:53:42;23.98;;;11.65;;
46116;SDS011;32591;48.102;11.772;2024-03-08T04:56:11;25.15;;;12.50;;
46116;SDS011;32591;48.102;11.772;2024-03-08T04:58:41;23.13;;;10.27;;
46116;SDS011;32591;48.102;11.772;2024-03-08T05:01:09;22.75;;;10.25;;
46116;SDS011;32591;48.102;11.772;2024-03-08T05:03:38;23.98;;;11.50;;
46116;SDS011;32591;48.102;11.772;2024-03-08T05:06:06;27.63;;;12.73;;
46116;SDS011;32591;48.102;11.772;2024-03-08T05:08:34;21.35;;;11.02;;
46116;SDS011;32591;48.102;11.772;2024-03-08T05:11:02;24.23;;;11.27;;
46116;SDS011;32591;48.102;11.772;2024-03-08T05:13:33;30.23;;;12.13;;
46116;SDS011;32591;48.102;11.772;2024-03-08T05:16:03;24.27;;;11.18;;
46116;SDS011;32591;48.102;11.772;2024-03-08T05:18:33;26.42;;;13.70;;
46116;SDS011;32591;48.102;11.772;2024-03-08T05:21:02;27.65;;;13.05;;
46116;SDS011;32591;48.102;11.772;2024-03-08T05:23:30;23.67;;;12.43;;
46116;SDS011;32591;48.102;11.772;2024-03-08T05:25:58;21.38;;;11.23;;
46116;SDS011;32591;48.102;11.772;2024-03-08T05:28:28;21.55;;;10.65;;
46116;SDS011;32591;48.102;11.772;2024-03-08T05:30:56;19.75;;;10.30;;
46116;SDS011;32591;48.102;11.772;2024-03-08T05:33:25;23.17;;;11.85;;
46116;SDS011;32591;48.102;11.772;2024-03-08T05:35:53;24.35;;;11.18;;
46116;SDS011;32591;48.102;11.772;2024-03-08T05:38:22;25.73;;;11.98;;
46116;SDS011;32591;48.102;11.772;2024-03-08T05:40:50;27.70;;;13.05;;
46116;SDS011;32591;48.102;11.772;2024-03-08T05:43:19;27.58;;;11.55;;
46116;SDS011;32591;48.102;11.772;2024-03-08T05:45:47;27.90;;;13.10;;
46116;SDS011;32591;48.102;11.772;2024-03-08T05:48:15;24.08;;;11.75;;
46116;SDS011;32591;48.102;11.772;2024-03-08T05:50:46;24.58;;;12.35;;
46116;SDS011;32591;48.102;11.772;2024-03-08T05:53:14;28.58;;;12.45;;
46116;SDS011;32591;48.102;11.772;2024-03-08T05:55:52;28.05;;;12.88;;
46116;SDS011;32591;48.102;11.772;2024-03-08T05:58:21;26.98;;;12.05;;
46116;SDS011;32591;48.102;11.772;2024-03-08T06:00:49;28.25;;;11.68;;
46116;SDS011;32591;48.102;11.772;2024-03-08T06:03:19;28.60;;;12.73;;
46116;SDS011;32591;48.102;11.772;2024-03-08T06:05:49;29.23;;;13.43;;
46116;SDS011;32591;48.102;11.772;2024-03-08T06:08:17;24.83;;;12.48;;
46116;SDS011;32591;48.102;11.772;2024-03-08T06:10:46;25.13;;;11.70;;
46116;SDS011;32591;48.102;11.772;2024-03-08T06:13:19;23.98;;;11.80;;
46116;SDS011;32591;48.102;11.772;2024-03-08T06:15:47;30.48;;;13.40;;
46116;SDS011;32591;48.102;11.772;2024-03-08T06:18:16;31.98;;;13.27;;
46116;SDS011;32591;48.102;11.772;2024-03-08T06:20:44;30.17;;;12.35;;
46116;SDS011;32591;48.102;11.772;2024-03-08T06:23:14;30.52;;;13.00;;
46116;SDS011;32591;48.102;11.772;2024-03-08T06:25:44;26.80;;;12.32;;
46116;SDS011;32591;48.102;11.772;2024-03-08T06:28:12;26.70;;;12.68;;
46116;SDS011;32591;48.102;11.772;2024-03-08T06:30:40;33.47;;;14.18;;
46116;SDS011;32591;48.102;11.772;2024-03-08T06:33:09;30.38;;;13.27;;
46116;SDS011;32591;48.102;11.772;2024-03-08T06:35:38;31.38;;;13.25;;
46116;SDS011;32591;48.102;11.772;2024-03-08T06:38:06;28.33;;;12.63;;
46116;SDS011;32591;48.102;11.772;2024-03-08T06:40:35;25.30;;;11.45;;
46116;SDS011;32591;48.102;11.772;2024-03-08T06:43:03;30.27;;;12.50;;
46116;SDS011;32591;48.102;11.772;2024-03-08T06:45:32;25.65;;;12.38;;
46116;SDS011;32591;48.102;11.772;2024-03-08T06:48:03;27.20;;;12.43;;
46116;SDS011;32591;48.102;11.772;2024-03-08T06:50:36;30.50;;;13.45;;
46116;SDS011;32591;48.102;11.772;2024-03-08T06:53:04;32.03;;;13.90;;
46116;SDS011;32591;48.102;11.772;2024-03-08T06:55:32;36.42;;;15.30;;
46116;SDS011;32591;48.102;11.772;2024-03-08T06:58:03;27.63;;;11.48;;
46116;SDS011;32591;48.102;11.772;2024-03-08T07:00:31;28.38;;;13.00;;
46116;SDS011;32591;48.102;11.772;2024-03-08T07:02:59;27.30;;;12.85;;
46116;SDS011;32591;48.102;11.772;2024-03-08T07:05:28;30.20;;;13.73;;
46116;SDS011;32591;48.102;11.772;2024-03-08T07:07:57;31.67;;;13.20;;
46116;SDS011;32591;48.102;11.772;2024-03-08T07:10:26;33.97;;;14.43;;
46116;SDS011;32591;48.102;11.772;2024-03-08T07:12:55;31.65;;;12.88;;
46116;SDS011;32591;48.102;11.772;2024-03-08T07:15:24;31.90;;;13.98;;
46116;SDS011;32591;48.102;11.772;2024-03-08T07:17:54;28.00;;;13.93;;
46116;SDS011;32591;48.102;11.772;2024-03-08T07:20:22;27.58;;;11.82;;
46116;SDS011;32591;48.102;11.772;2024-03-08T07:22:50;34.25;;;13.98;;
46116;SDS011;32591;48.102;11.772;2024-03-08T07:25:19;31.23;;;12.82;;
46116;SDS011;32591;48.102;11.772;2024-03-08T07:27:49;32.03;;;13.23;;
46116;SDS011;32591;48.102;11.772;2024-03-08T07:30:19;26.17;;;12.80;;
46116;SDS011;32591;48.102;11.772;2024-03-08T07:33:06;34.40;;;14.52;;
46116;SDS011;32591;48.102;11.772;2024-03-08T07:35:38;31.27;;;13.65;;
46116;SDS011;32591;48.102;11.772;2024-03-08T07:38:07;30.52;;;14.75;;
46116;SDS011;32591;48.102;11.772;2024-03-08T07:40:36;35.75;;;16.25;;
46116;SDS011;32591;48.102;11.772;2024-03-08T07:43:06;41.22;;;16.67;;
46116;SDS011;32591;48.102;11.772;2024-03-08T07:45:35;35.90;;;16.75;;
46116;SDS011;32591;48.102;11.772;2024-03-08T07:48:03;36.38;;;14.90;;
46116;SDS011;32591;48.102;11.772;2024-03-08T07:50:37;40.60;;;17.25;;
46116;SDS011;32591;48.102;11.772;2024-03-08T07:53:06;29.50;;;14.43;;
46116;SDS011;32591;48.102;11.772;2024-03-08T07:55:35;28.30;;;12.65;;
46116;SDS011;32591;48.102;11.772;2024-03-08T07:58:04;39.13;;;17.98;;
46116;SDS011;32591;48.102;11.772;2024-03-08T08:00:32;30.63;;;13.70;;
46116;SDS011;32591;48.102;11.772;2024-03-08T08:03:02;27.70;;;12.70;;
46116;SDS011;32591;48.102;11.772;2024-03-08T08:05:32;30.60;;;14.45;;
46116;SDS011;32591;48.102;11.772;2024-03-08T08:08:02;31.67;;;13.23;;
46116;SDS011;32591;48.102;11.772;2024-03-08T08:10:32;27.40;;;13.50;;
46116;SDS011;32591;48.102;11.772;2024-03-08T08:13:01;30.85;;;14.23;;
46116;SDS011;32591;48.102;11.772;2024-03-08T08:15:31;29.25;;;12.70;;
46116;SDS011;32591;48.102;11.772;2024-03-08T08:18:00;27.02;;;13.23;;
46116;SDS011;32591;48.102;11.772;2024-03-08T08:20:34;28.05;;;13.38;;
46116;SDS011;32591;48.102;11.772;2024-03-08T08:23:02;30.38;;;12.95;;
46116;SDS011;32591;48.102;11.772;2024-03-08T08:25:31;30.45;;;11.93;;
46116;SDS011;32591;48.102;11.772;2024-03-08T08:28:01;32.08;;;14.30;;
46116;SDS011;32591;48.102;11.772;2024-03-08T08:30:30;33.03;;;14.48;;
46116;SDS011;32591;48.102;11.772;2024-03-08T08:33:00;29.00;;;12.02;;
46116;SDS011;32591;48.102;11.772;2024-03-08T08:35:28;26.50;;;12.52;;
46116;SDS011;32591;48.102;11.772;2024-03-08T08:37:58;28.88;;;12.45;;
46116;SDS011;32591;48.102;11.772;2024-03-08T08:40:26;31.67;;;13.43;;
46116;SDS011;32591;48.102;11.772;2024-03-08T08:42:57;27.75;;;14.13;;
46116;SDS011;32591;48.102;11.772;2024-03-08T08:45:26;33.38;;;15.80;;
46116;SDS011;32591;48.102;11.772;2024-03-08T08:47:54;28.75;;;13.02;;
46116;SDS011;32591;48.102;11.772;2024-03-08T08:50:22;31.15;;;13.20;;
46116;SDS011;32591;48.102;11.772;2024-03-08T08:52:52;29.42;;;12.95;;
46116;SDS011;32591;48.102;11.772;2024-03-08T08:55:21;27.98;;;12.68;;
46116;SDS011;32591;48.102;11.772;2024-03-08T08:57:52;24.85;;;12.32;;
46116;SDS011;32591;48.102;11.772;2024-03-08T09:00:21;26.95;;;12.98;;
46116;SDS011;32591;48.102;11.772;2024-03-08T09:02:54;26.42;;;14.02;;
46116;SDS011;32591;48.102;11.772;2024-03-08T09:05:24;27.02;;;12.02;;
46116;SDS011;32591;48.102;11.772;2024-03-08T09:07:52;23.80;;;11.80;;
46116;SDS011;32591;48.102;11.772;2024-03-08T09:10:22;27.42;;;12.85;;
46116;SDS011;32591;48.102;11.772;2024-03-08T09:12:56;28.02;;;13.45;;
46116;SDS011;32591;48.102;11.772;2024-03-08T09:15:26;26.38;;;12.68;;
46116;SDS011;32591;48.102;11.772;2024-03-08T09:17:55;23.80;;;11.73;;
46116;SDS011;32591;48.102;11.772;2024-03-08T09:20:23;26.35;;;11.98;;
46116;SDS011;32591;48.102;11.772;2024-03-08T09:22:52;24.52;;;12.45;;
46116;SDS011;32591;48.102;11.772;2024-03-08T09:25:22;29.35;;;14.52;;
46116;SDS011;32591;48.102;11.772;2024-03-08T09:27:51;23.65;;;11.85;;
46116;SDS011;32591;48.102;11.772;2024-03-08T09:30:20;27.42;;;13.32;;
46116;SDS011;32591;48.102;11.772;2024-03-08T09:32:49;24.65;;;12.07;;
46116;SDS011;32591;48.102;11.772;2024-03-08T09:35:18;25.48;;;12.00;;
46116;SDS011;32591;48.102;11.772;2024-03-08T09:37:47;23.33;;;12.27;;
46116;SDS011;32591;48.102;11.772;2024-03-08T09:40:18;25.23;;;12.75;;
46116;SDS011;32591;48.102;11.772;2024-03-08T09:42:48;26.52;;;12.32;;
46116;SDS011;32591;48.102;11.772;2024-03-08T09:45:17;23.08;;;11.70;;
46116;SDS011;32591;48.102;11.772;2024-03-08T09:47:48;24.83;;;12.63;;
46116;SDS011;32591;48.102;11.772;2024-03-08T09:50:16;26.73;;;12.68;;
46116;SDS011;32591;48.102;11.772;2024-03-08T09:52:46;21.48;;;10.82;;
46116;SDS011;32591;48.102;11.772;2024-03-08T09:55:17;22.15;;;11.85;;
46116;SDS011;32591;48.102;11.772;2024-03-08T09:57:50;26.75;;;12.07;;
46116;SDS011;32591;48.102;11.772;2024-03-08T10:00:37;25.35;;;11.95;;
46116;SDS011;32591;48.102;11.772;2024-03-08T10:03:05;22.83;;;11.85;;
46116;SDS011;32591;48.102;11.772;2024-03-08T10:05:33;20.40;;;10.80;;
46116;SDS011;32591;48.102;11.772;2024-03-08T10:08:01;24.25;;;11.38;;
46116;SDS011;32591;48.102;11.772;2024-03-08T10:10:31;23.77;;;10.70;;
46116;SDS011;32591;48.102;11.772;2024-03-08T10:13:02;21.30;;;11.10;;
46116;SDS011;32591;48.102;11.772;2024-03-08T10:15:33;21.70;;;11.73;;
46116;SDS011;32591;48.102;11.772;2024-03-08T10:18:01;22.08;;;11.65;;
46116;SDS011;32591;48.102;11.772;2024-03-08T10:20:30;21.35;;;10.60;;
46116;SDS011;32591;48.102;11.772;2024-03-08T10:23:00;23.52;;;11.18;;
46116;SDS011;32591;48.102;11.772;2024-03-08T10:25:37;21.08;;;9.70;;
46116;SDS011;32591;48.102;11.772;2024-03-08T10:28:07;22.85;;;10.95;;
46116;SDS011;32591;48.102;11.772;2024-03-08T10:30:35;25.63;;;11.07;;
46116;SDS011;32591;48.102;11.772;2024-03-08T10:33:04;19.63;;;10.63;;
46116;SDS011;32591;48.102;11.772;2024-03-08T10:35:33;22.98;;;11.18;;
46116;SDS011;32591;48.102;11.772;2024-03-08T10:38:01;22.63;;;10.32;;
46116;SDS011;32591;48.102;11.772;2024-03-08T10:40:33;26.35;;;12.48;;
46116;SDS011;32591;48.102;11.772;2024-03-08T10:43:04;24.42;;;11.05;;
46116;SDS011;32591;48.102;11.772;2024-03-08T10:45:38;18.23;;;9.25;;
46116;SDS011;32591;48.102;11.772;2024-03-08T10:48:11;21.58;;;10.45;;
46116;SDS011;32591;48.102;11.772;2024-03-08T10:51:03;21.40;;;10.68;;
46116;SDS011;32591;48.102;11.772;2024-03-08T10:53:34;20.27;;;10.48;;
46116;SDS011;32591;48.102;11.772;2024-03-08T10:56:08;20.02;;;10.57;;
46116;SDS011;32591;48.102;11.772;2024-03-08T10:58:38;21.13;;;11.80;;
46116;SDS011;32591;48.102;11.772;2024-03-08T11:01:08;22.05;;;11.20;;
46116;SDS011;32591;48.102;11.772;2024-03-08T11:03:46;22.02;;;10.68;;
46116;SDS011;32591;48.102;11.772;2024-03-08T11:06:22;23.10;;;12.02;;
46116;SDS011;32591;48.102;11.772;2024-03-08T11:14:59;24.00;;;11.40;;
46116;SDS011;32591;48.102;11.772;2024-03-08T11:17:40;22.20;;;11.38;;
46116;SDS011;32591;48.102;11.772;2024-03-08T11:20:13;21.35;;;10.40;;
46116;SDS011;32591;48.102;11.772;2024-03-08T11:22:47;22.00;;;10.85;;
46116;SDS011;32591;48.102;11.772;2024-03-08T11:25:30;17.50;;;10.05;;
46116;SDS011;32591;48.102;11.772;2024-03-08T11:28:06;20.67;;;10.95;;
46116;SDS011;32591;48.102;11.772;2024-03-08T11:33:53;20.23;;;10.68;;
46116;SDS011;32591;48.102;11.772;2024-03-08T11:36:21;19.88;;;11.40;;
46116;SDS011;32591;48.102;11.772;2024-03-08T11:38:51;20.75;;;9.88;;
46116;SDS011;32591;48.102;11.772;2024-03-08T11:41:23;20.40;;;10.85;;
46116;SDS011;32591;48.102;11.772;2024-03-08T11:44:01;22.10;;;11.40;;
46116;SDS011;32591;48.102;11.772;2024-03-08T11:46:34;19.27;;;10.82;;
46116;SDS011;32591;48.102;11.772;2024-03-08T11:49:02;23.13;;;12.18;;
46116;SDS011;32591;48.102;11.772;2024-03-08T11:51:32;22.15;;;11.32;;
46116;SDS011;32591;48.102;11.772;2024-03-08T11:54:00;21.65;;;10.45;;
46116;SDS011;32591;48.102;11.772;2024-03-08T11:56:29;21.85;;;11.20;;
46116;SDS011;32591;48.102;11.772;2024-03-08T11:58:58;18.00;;;10.02;;
46116;SDS011;32591;48.102;11.772;2024-03-08T12:01:28;16.33;;;9.45;;
46116;SDS011;32591;48.102;11.772;2024-03-08T12:03:59;23.20;;;11.63;;
46116;SDS011;32591;48.102;11.772;2024-03-08T12:06:35;19.02;;;10.43;;
46116;SDS011;32591;48.102;11.772;2024-03-08T12:09:09;19.42;;;11.00;;
46116;SDS011;32591;48.102;11.772;2024-03-08T12:11:37;20.17;;;10.52;;
46116;SDS011;32591;48.102;11.772;2024-03-08T12:14:06;17.67;;;9.70;;
46116;SDS011;32591;48.102;11.772;2024-03-08T12:16:36;19.02;;;10.13;;
46116;SDS011;32591;48.102;11.772;2024-03-08T12:19:05;41.20;;;13.40;;
46116;SDS011;32591;48.102;11.772;2024-03-08T12:21:35;25.20;;;11.85;;
46116;SDS011;32591;48.102;11.772;2024-03-08T12:24:04;26.48;;;12.40;;
46116;SDS011;32591;48.102;11.772;2024-03-08T12:26:35;16.77;;;9.65;;
46116;SDS011;32591;48.102;11.772;2024-03-08T12:29:14;22.95;;;10.68;;
46116;SDS011;32591;48.102;11.772;2024-03-08T12:31:53;16.67;;;10.00;;
46116;SDS011;32591;48.102;11.772;2024-03-08T12:34:26;21.40;;;10.63;;
46116;SDS011;32591;48.102;11.772;2024-03-08T12:36:55;20.48;;;10.45;;
46116;SDS011;32591;48.102;11.772;2024-03-08T12:39:23;17.05;;;10.20;;
46116;SDS011;32591;48.102;11.772;2024-03-08T12:41:54;16.88;;;8.68;;
46116;SDS011;32591;48.102;11.772;2024-03-08T12:44:23;45.85;;;13.98;;
46116;SDS011;32591;48.102;11.772;2024-03-08T12:46:52;21.38;;;11.52;;
46116;SDS011;32591;48.102;11.772;2024-03-08T12:49:21;26.45;;;10.18;;
46116;SDS011;32591;48.102;11.772;2024-03-08T12:51:51;20.15;;;9.60;;
46116;SDS011;32591;48.102;11.772;2024-03-08T12:54:19;19.10;;;9.70;;
46116;SDS011;32591;48.102;11.772;2024-03-08T12:56:51;19.75;;;9.15;;
46116;SDS011;32591;48.102;11.772;2024-03-08T12:59:21;19.73;;;9.32;;
46116;SDS011;32591;48.102;11.772;2024-03-08T13:01:50;15.57;;;8.38;;
46116;SDS011;32591;48.102;11.772;2024-03-08T13:04:20;14.40;;;8.40;;
46116;SDS011;32591;48.102;11.772;2024-03-08T13:06:50;33.97;;;11.65;;
46116;SDS011;32591;48.102;11.772;2024-03-08T13:09:21;26.52;;;11.55;;
46116;SDS011;32591;48.102;11.772;2024-03-08T13:11:49;16.38;;;9.00;;
46116;SDS011;32591;48.102;11.772;2024-03-08T13:14:18;15.77;;;8.50;;
46116;SDS011;32591;48.102;11.772;2024-03-08T13:16:47;15.23;;;7.78;;
46116;SDS011;32591;48.102;11.772;2024-03-08T13:19:17;14.85;;;9.02;;
46116;SDS011;32591;48.102;11.772;2024-03-08T13:21:48;19.90;;;9.18;;
46116;SDS011;32591;48.102;11.772;2024-03-08T13:24:17;61.70;;;14.30;;
46116;SDS011;32591;48.102;11.772;2024-03-08T13:26:47;16.25;;;9.25;;
46116;SDS011;32591;48.102;11.772;2024-03-08T13:29:16;18.55;;;9.70;;
46116;SDS011;32591;48.102;11.772;2024-03-08T13:31:45;16.83;;;9.77;;
46116;SDS011;32591;48.102;11.772;2024-03-08T13:34:18;18.35;;;10.77;;
46116;SDS011;32591;48.102;11.772;2024-03-08T13:36:54;17.50;;;9.55;;
46116;SDS011;32591;48.102;11.772;2024-03-08T13:39:28;17.77;;;9.77;;
46116;SDS011;32591;48.102;11.772;2024-03-08T13:42:01;20.80;;;10.10;;
46116;SDS011;32591;48.102;11.772;2024-03-08T13:44:31;20.15;;;10.52;;
46116;SDS011;32591;48.102;11.772;2024-03-08T13:46:59;19.75;;;11.00;;
46116;SDS011;32591;48.102;11.772;2024-03-08T13:49:30;16.77;;;9.63;;
46116;SDS011;32591;48.102;11.772;2024-03-08T13:51:59;19.52;;;9.60;;
46116;SDS011;32591;48.102;11.772;2024-03-08T13:54:29;17.52;;;11.13;;
46116;SDS011;32591;48.102;11.772;2024-03-08T13:56:57;15.43;;;9.13;;
46116;SDS011;32591;48.102;11.772;2024-03-08T13:59:27;16.55;;;9.35;;
46116;SDS011;32591;48.102;11.772;2024-03-08T14:01:55;17.63;;;10.38;;
46116;SDS011;32591;48.102;11.772;2024-03-08T14:04:25;21.13;;;11.05;;
46116;SDS011;32591;48.102;11.772;2024-03-08T14:06:54;20.13;;;9.85;;
46116;SDS011;32591;48.102;11.772;2024-03-08T14:09:29;18.60;;;10.43;;
46116;SDS011;32591;48.102;11.772;2024-03-08T14:11:57;19.58;;;10.77;;
46116;SDS011;32591;48.102;11.772;2024-03-08T14:14:26;21.42;;;10.32;;
46116;SDS011;32591;48.102;11.772;2024-03-08T14:16:54;17.95;;;11.52;;
46116;SDS011;32591;48.102;11.772;2024-03-08T14:19:24;15.38;;;9.70;;
46116;SDS011;32591;48.102;11.772;2024-03-08T14:21:53;17.42;;;11.35;;
46116;SDS011;32591;48.102;11.772;2024-03-08T14:24:21;19.52;;;10.70;;
46116;SDS011;32591;48.102;11.772;2024-03-08T14:26:51;17.52;;;11.65;;
46116;SDS011;32591;48.102;11.772;2024-03-08T14:29:19;23.40;;;11.15;;
46116;SDS011;32591;48.102;11.772;2024-03-08T14:31:48;19.70;;;11.48;;
46116;SDS011;32591;48.102;11.772;2024-03-08T14:34:16;17.50;;;10.27;;
46116;SDS011;32591;48.102;11.772;2024-03-08T14:36:46;17.58;;;9.85;;